TimeMST,TemperatureF,Dew PointF,Humidity,Sea Level PressureIn,VisibilityMPH,Wind Direction,Wind SpeedMPH,Gust SpeedMPH,PrecipitationIn,Events,Conditions,WindDirDegrees,DateUTC
12:15 AM,32.0,23.9,72,29.75,10.0,Calm,Calm,-,N/A,,Overcast,0,2012-12-16 07:15:00
12:55 AM,32.2,23.4,70,29.73,10.0,SSE,5.8,-,N/A,,Overcast,150,2012-12-16 07:55:00
1:15 AM,31.6,24.8,76,29.74,10.0,West,8.1,-,N/A,,Overcast,260,2012-12-16 08:15:00
1:55 AM,30.2,25.5,83,29.74,10.0,West,4.6,-,N/A,,Overcast,260,2012-12-16 08:55:00
2:15 AM,30.2,25.7,83,29.74,10.0,Calm,Calm,-,N/A,,Overcast,0,2012-12-16 09:15:00
2:35 AM,30.4,25.7,83,29.74,10.0,Calm,Calm,-,N/A,,Overcast,0,2012-12-16 09:35:00
2:55 AM,30.6,26.1,83,29.73,10.0,Calm,Calm,-,N/A,,Overcast,0,2012-12-16 09:55:00
3:15 AM,30.2,26.1,85,29.74,10.0,WNW,4.6,-,N/A,,Overcast,290,2012-12-16 10:15:00
3:35 AM,30.7,26.2,83,29.74,10.0,West,5.8,-,N/A,,Overcast,270,2012-12-16 10:35:00
3:55 AM,30.9,26.6,84,29.73,10.0,West,4.6,-,N/A,,Overcast,260,2012-12-16 10:55:00
4:15 AM,30.0,26.1,85,29.70,10.0,ENE,6.9,-,N/A,,Overcast,70,2012-12-16 11:15:00
4:35 AM,28.2,24.8,87,29.73,10.0,West,6.9,-,N/A,,Scattered Clouds,260,2012-12-16 11:35:00
4:55 AM,29.7,27.0,90,29.73,10.0,West,5.8,-,N/A,,Mostly Cloudy,260,2012-12-16 11:55:00
5:15 AM,30.0,27.1,89,29.73,10.0,WNW,5.8,-,N/A,,Overcast,300,2012-12-16 12:15:00
5:35 AM,30.7,27.5,88,29.73,10.0,West,8.1,-,N/A,,Overcast,260,2012-12-16 12:35:00
6:15 AM,30.7,27.9,89,29.73,10.0,Calm,Calm,-,N/A,,Overcast,0,2012-12-16 13:15:00
6:35 AM,31.1,28.0,88,29.73,10.0,Calm,Calm,-,N/A,,Overcast,0,2012-12-16 13:35:00
6:55 AM,31.1,28.2,89,29.72,10.0,SW,3.5,-,N/A,,Overcast,220,2012-12-16 13:55:00
7:15 AM,31.5,28.2,88,29.73,10.0,WSW,3.5,-,N/A,,Overcast,240,2012-12-16 14:15:00
7:35 AM,31.6,28.4,88,29.73,10.0,Calm,Calm,-,N/A,,Overcast,0,2012-12-16 14:35:00
7:55 AM,31.8,28.8,88,29.73,10.0,Calm,Calm,-,N/A,,Overcast,0,2012-12-16 14:55:00
8:15 AM,32.0,28.9,88,29.73,10.0,SW,3.5,-,N/A,,Overcast,220,2012-12-16 15:15:00
8:35 AM,32.5,29.3,88,29.73,10.0,Calm,Calm,-,N/A,,Overcast,0,2012-12-16 15:35:00
8:55 AM,33.3,29.7,87,29.73,10.0,Calm,Calm,-,N/A,,Overcast,0,2012-12-16 15:55:00
9:15 AM,34.3,30.0,84,29.73,10.0,Calm,Calm,-,N/A,,Overcast,0,2012-12-16 16:15:00
9:35 AM,34.9,30.6,84,29.73,10.0,Calm,Calm,-,N/A,,Overcast,0,2012-12-16 16:35:00
9:55 AM,35.4,30.9,84,29.73,10.0,Calm,Calm,-,N/A,,Overcast,0,2012-12-16 16:55:00
10:15 AM,36.7,31.8,83,29.74,10.0,WSW,8.1,-,N/A,,Overcast,250,2012-12-16 17:15:00
10:35 AM,37.0,32.0,82,29.74,10.0,WSW,9.2,-,N/A,,Overcast,240,2012-12-16 17:35:00
10:55 AM,38.5,32.2,78,29.73,10.0,WSW,12.7,-,N/A,,Overcast,250,2012-12-16 17:55:00
11:35 AM,39.2,32.5,77,29.71,10.0,WSW,10.4,-,N/A,,Mostly Cloudy,240,2012-12-16 18:35:00
11:55 AM,40.8,33.1,74,29.69,10.0,West,5.8,-,N/A,,Scattered Clouds,260,2012-12-16 18:55:00
12:15 PM,42.6,33.8,71,29.69,10.0,WSW,10.4,-,N/A,,Scattered Clouds,250,2012-12-16 19:15:00
12:35 PM,44.4,33.8,66,29.68,10.0,WSW,16.1,-,N/A,,Mostly Cloudy,250,2012-12-16 19:35:00
12:55 PM,45.5,33.3,62,29.67,10.0,WSW,12.7,17.3,N/A,,Scattered Clouds,250,2012-12-16 19:55:00
1:15 PM,45.1,33.1,63,29.66,10.0,SW,13.8,-,N/A,,Scattered Clouds,230,2012-12-16 20:15:00
1:35 PM,44.8,32.7,63,29.65,10.0,WSW,10.4,17.3,N/A,,Clear,240,2012-12-16 20:35:00
1:55 PM,44.6,32.7,63,29.65,7.0,WSW,15.0,-,N/A,,Clear,240,2012-12-16 20:55:00
2:15 PM,44.6,32.5,63,29.65,10.0,WSW,12.7,-,N/A,,Clear,240,2012-12-16 21:15:00
2:35 PM,44.4,32.2,62,29.66,10.0,WSW,12.7,18.4,N/A,,Clear,250,2012-12-16 21:35:00
2:55 PM,43.7,33.1,66,29.67,10.0,WSW,12.7,-,N/A,,Clear,250,2012-12-16 21:55:00
3:15 PM,41.2,32.7,72,29.67,10.0,SW,9.2,-,N/A,,Scattered Clouds,230,2012-12-16 22:15:00
3:35 PM,39.6,32.2,75,29.68,10.0,SW,12.7,-,N/A,,Overcast,230,2012-12-16 22:35:00
3:55 PM,37.8,32.0,80,29.69,10.0,WSW,6.9,-,N/A,,Mostly Cloudy,240,2012-12-16 22:55:00
4:15 PM,36.9,32.0,83,29.71,10.0,West,11.5,-,N/A,,Mostly Cloudy,260,2012-12-16 23:15:00
4:35 PM,36.5,32.0,84,29.70,10.0,WSW,9.2,-,N/A,,Mostly Cloudy,240,2012-12-16 23:35:00
4:55 PM,35.6,31.5,85,29.71,10.0,WSW,6.9,-,N/A,,Scattered Clouds,240,2012-12-16 23:55:00
5:15 PM,34.9,31.1,86,29.72,10.0,West,10.4,-,N/A,,Scattered Clouds,260,2012-12-17 00:15:00
5:35 PM,33.1,29.8,88,29.72,10.0,West,4.6,-,N/A,,Scattered Clouds,270,2012-12-17 00:35:00
5:55 PM,30.9,28.0,89,29.73,7.0,West,5.8,-,N/A,,Clear,270,2012-12-17 00:55:00
6:15 PM,28.9,26.2,90,29.73,7.0,West,9.2,-,N/A,,Scattered Clouds,260,2012-12-17 01:15:00
6:35 PM,29.3,27.1,92,29.74,5.0,West,6.9,-,N/A,,Clear,270,2012-12-17 01:35:00
6:55 PM,28.9,27.1,93,29.74,5.0,West,8.1,-,N/A,,Clear,270,2012-12-17 01:55:00
7:15 PM,26.6,24.8,93,29.74,4.0,West,8.1,-,N/A,,Clear,260,2012-12-17 02:15:00
7:35 PM,25.9,24.1,93,29.74,4.0,West,10.4,-,N/A,,Clear,260,2012-12-17 02:35:00
7:55 PM,26.6,25.0,94,29.74,5.0,West,6.9,-,N/A,,Clear,270,2012-12-17 02:55:00
8:15 PM,25.5,23.9,94,29.74,4.0,West,3.5,-,N/A,,Clear,270,2012-12-17 03:15:00
8:35 PM,27.5,26.1,94,29.75,7.0,Calm,Calm,-,N/A,,Clear,0,2012-12-17 03:35:00
8:55 PM,27.5,24.4,88,29.74,10.0,WSW,3.5,-,N/A,,Clear,250,2012-12-17 03:55:00
9:15 PM,24.4,21.4,88,29.74,10.0,WSW,6.9,-,N/A,,Clear,240,2012-12-17 04:15:00
9:35 PM,26.1,21.4,82,29.74,10.0,WNW,6.9,-,N/A,,Clear,290,2012-12-17 04:35:00
9:55 PM,22.3,19.0,87,29.75,10.0,West,10.4,-,N/A,,Clear,260,2012-12-17 04:55:00
10:15 PM,24.1,18.5,79,29.75,10.0,WNW,10.4,-,N/A,,Clear,290,2012-12-17 05:15:00
10:35 PM,23.0,17.1,78,29.76,10.0,SW,3.5,-,N/A,,Clear,230,2012-12-17 05:35:00
10:55 PM,23.9,17.4,76,29.76,10.0,West,4.6,-,N/A,,Clear,260,2012-12-17 05:55:00
11:15 PM,21.7,16.9,82,29.76,10.0,WSW,5.8,-,N/A,,Clear,250,2012-12-17 06:15:00
11:35 PM,20.8,15.8,81,29.76,10.0,Calm,Calm,-,N/A,,Clear,0,2012-12-17 06:35:00
11:55 PM,19.6,14.7,81,29.75,10.0,WSW,3.5,-,N/A,,Clear,250,2012-12-17 06:55:00